Terminal Aerodrome Forecast
Issued by NWS

Home | Current Version | Previous Version | Text Only | Print | Product List | Glossary On
Versions: 1 2 3 4 5 6 7 8 9 10 11 12 13 14 15 16 17 18 19 20 21 22 23 24 25
000
FTUS41 KCAR 270527
TAFBHB
TAF
KBHB 270527Z 2706/2806 28007KT P6SM FEW150
     FM271300 23011G18KT P6SM SCT200
     FM271800 24016G26KT P6SM SCT050
     FM272300 27010KT P6SM SCT050
     FM280300 29006KT P6SM SCT050=

USA.gov is the U.S. government's official web portal to all federal, state and local government web resources and services.